Time;durP1;ratioP1;P1;durP2;ratioP2;P2;SDS_P1;SDS_P2;PMS_P1;PMS_P2;Temp;Humidity;BMP_temperature;BMP_pressure;BME280_temperature;BME280_humidity;BME280_pressure;Samples;Min_cycle;Max_cycle;Signal;HPM_P1;HPM_P2
2021/11/11 00:01:41;;;;;;;21.92;14.40;;;;;;;;;;5112381;28;20023;-69
2021/11/11 00:04:11;;;;;;;21.35;14.00;;;;;;;;;;5094181;28;20054;-68
2021/11/11 00:06:39;;;;;;;29.23;13.77;;;;;;;;;;5112102;28;20106;-70
2021/11/11 00:09:05;;;;;;;25.60;14.70;;;;;;;;;;5112107;28;20042;-69
2021/11/11 00:11:31;;;;;;;26.00;14.18;;;;;;;;;;5111641;28;20020;-71
2021/11/11 00:13:57;;;;;;;29.38;15.80;;;;;;;;;;5110872;28;20087;-70
2021/11/11 00:16:23;;;;;;;23.88;13.00;;;;;;;;;;5111540;28;20018;-69
2021/11/11 00:18:49;;;;;;;21.48;13.98;;;;;;;;;;5112012;28;20026;-68
2021/11/11 00:21:16;;;;;;;22.35;13.48;;;;;;;;;;5112351;28;20031;-68
2021/11/11 00:23:42;;;;;;;21.42;14.45;;;;;;;;;;5112427;28;20031;-68
2021/11/11 00:26:08;;;;;;;22.05;14.10;;;;;;;;;;5112200;28;20463;-67
2021/11/11 00:28:35;;;;;;;21.88;13.32;;;;;;;;;;5111902;28;20024;-68
2021/11/11 00:31:01;;;;;;;17.63;12.73;;;;;;;;;;5093131;28;20028;-70
2021/11/11 00:33:27;;;;;;;20.63;13.68;;;;;;;;;;5111956;28;20107;-70
2021/11/11 00:35:53;;;;;;;22.40;13.15;;;;;;;;;;5111941;28;20023;-70
2021/11/11 00:38:20;;;;;;;21.27;13.18;;;;;;;;;;5115015;28;20020;-70
2021/11/11 00:40:46;;;;;;;18.88;13.50;;;;;;;;;;5116454;28;20039;-70
2021/11/11 00:43:12;;;;;;;21.88;14.15;;;;;;;;;;5097857;28;20024;-70
2021/11/11 00:45:38;;;;;;;19.67;12.30;;;;;;;;;;5097818;28;20031;-70
2021/11/11 00:48:05;;;;;;;20.35;13.40;;;;;;;;;;5115378;28;20015;-70
2021/11/11 00:50:32;;;;;;;20.10;13.13;;;;;;;;;;5082612;28;20065;-69
2021/11/11 00:52:58;;;;;;;17.70;12.95;;;;;;;;;;5095877;28;20028;-70
2021/11/11 00:55:25;;;;;;;19.17;13.23;;;;;;;;;;5095978;28;20043;-70
2021/11/11 00:57:51;;;;;;;20.05;13.15;;;;;;;;;;5096114;28;20024;-70
2021/11/11 01:00:18;;;;;;;19.67;13.05;;;;;;;;;;5095758;28;20427;-70
2021/11/11 01:02:46;;;;;;;21.13;12.35;;;;;;;;;;5077593;28;20043;-71
2021/11/11 01:05:12;;;;;;;21.65;13.30;;;;;;;;;;5095730;28;20070;-71
2021/11/11 01:07:39;;;;;;;17.73;12.13;;;;;;;;;;5095844;28;20046;-70
2021/11/11 01:10:06;;;;;;;19.05;12.15;;;;;;;;;;5095917;28;20046;-69
2021/11/11 01:12:32;;;;;;;20.08;11.77;;;;;;;;;;5095836;28;20097;-70
2021/11/11 01:14:58;;;;;;;16.70;12.10;;;;;;;;;;5077419;28;20399;-69
2021/11/11 01:17:24;;;;;;;19.92;12.07;;;;;;;;;;5095673;28;20463;-69
2021/11/11 01:19:50;;;;;;;17.42;11.88;;;;;;;;;;5077275;28;20041;-69
2021/11/11 01:22:17;;;;;;;19.42;11.77;;;;;;;;;;5095510;28;20475;-69
2021/11/11 01:24:43;;;;;;;16.23;11.00;;;;;;;;;;5095442;28;20115;-69
2021/11/11 01:27:09;;;;;;;17.70;11.40;;;;;;;;;;5095707;28;20051;-69
2021/11/11 01:29:35;;;;;;;18.23;11.73;;;;;;;;;;5095432;28;20074;-69
2021/11/11 01:32:01;;;;;;;15.70;10.98;;;;;;;;;;5077137;28;20032;-68
2021/11/11 01:34:28;;;;;;;16.67;11.32;;;;;;;;;;5094433;28;20567;-69
2021/11/11 01:36:54;;;;;;;16.95;11.20;;;;;;;;;;5093889;28;20028;-69
2021/11/11 01:39:21;;;;;;;18.60;12.38;;;;;;;;;;5093906;28;20031;-68
2021/11/11 01:41:47;;;;;;;16.05;11.55;;;;;;;;;;5093947;28;20075;-69
2021/11/11 01:44:14;;;;;;;17.60;12.20;;;;;;;;;;5094056;28;20118;-69
2021/11/11 01:46:41;;;;;;;16.83;11.18;;;;;;;;;;5094027;28;20024;-72
2021/11/11 01:49:07;;;;;;;18.60;11.73;;;;;;;;;;5093307;28;20012;-69
2021/11/11 01:51:33;;;;;;;14.40;10.25;;;;;;;;;;5075628;28;20520;-69
2021/11/11 01:53:59;;;;;;;22.42;11.07;;;;;;;;;;5093742;28;20024;-69
2021/11/11 01:56:25;;;;;;;15.95;11.32;;;;;;;;;;5093943;28;20027;-69
2021/11/11 01:58:52;;;;;;;16.45;10.98;;;;;;;;;;5093655;28;20016;-69
2021/11/11 02:01:19;;;;;;;19.98;12.10;;;;;;;;;;5093525;28;20458;-69
2021/11/11 02:03:45;;;;;;;17.13;11.23;;;;;;;;;;5075535;28;20031;-69
2021/11/11 02:06:12;;;;;;;16.38;11.63;;;;;;;;;;5093578;28;20104;-70
2021/11/11 02:08:38;;;;;;;16.20;10.98;;;;;;;;;;5093218;28;20525;-69
2021/11/11 02:11:04;;;;;;;17.70;10.93;;;;;;;;;;5093443;28;20080;-69
2021/11/11 02:13:30;;;;;;;18.63;11.40;;;;;;;;;;5093324;28;20069;-68
2021/11/11 02:15:56;;;;;;;16.60;10.98;;;;;;;;;;5093369;28;20375;-68
2021/11/11 02:18:22;;;;;;;16.08;10.45;;;;;;;;;;5093871;28;20103;-68
2021/11/11 02:20:48;;;;;;;16.63;10.68;;;;;;;;;;5075101;28;20491;-68
2021/11/11 02:23:17;;;;;;;13.20;9.70;;;;;;;;;;5093348;28;20043;-68
2021/11/11 02:25:43;;;;;;;14.88;10.13;;;;;;;;;;5075043;28;20375;-68
2021/11/11 02:28:14;;;;;;;14.95;9.98;;;;;;;;;;5093320;28;20051;-67
2021/11/11 02:30:41;;;;;;;15.95;10.80;;;;;;;;;;5093198;28;20035;-67
2021/11/11 02:35:54;;;;;;;15.25;10.82;;;;;;;;;;5151463;27;20126;-67
2021/11/11 02:38:21;;;;;;;16.80;10.93;;;;;;;;;;5130686;27;20065;-67
2021/11/11 02:40:48;;;;;;;15.90;10.90;;;;;;;;;;5130416;27;20026;-68
2021/11/11 02:43:15;;;;;;;17.55;11.25;;;;;;;;;;5130393;27;20026;-67
2021/11/11 02:45:43;;;;;;;15.73;10.80;;;;;;;;;;5130373;27;20045;-68
2021/11/11 02:48:10;;;;;;;16.92;10.82;;;;;;;;;;5111984;28;20019;-68
2021/11/11 02:50:36;;;;;;;14.32;9.75;;;;;;;;;;5114435;27;20027;-67
2021/11/11 02:53:03;;;;;;;16.30;10.27;;;;;;;;;;5109920;28;20020;-67
2021/11/11 02:55:30;;;;;;;15.60;10.07;;;;;;;;;;5109749;28;20031;-67
2021/11/11 02:57:57;;;;;;;16.00;10.25;;;;;;;;;;5091409;28;20106;-70
2021/11/11 03:00:23;;;;;;;14.50;9.50;;;;;;;;;;5109762;28;20094;-70
2021/11/11 03:02:50;;;;;;;14.48;9.50;;;;;;;;;;5109719;28;20483;-72
2021/11/11 03:05:20;;;;;;;19.02;9.73;;;;;;;;;;5090915;28;20020;-71
2021/11/11 03:07:46;;;;;;;12.82;8.85;;;;;;;;;;5109051;28;20035;-71
2021/11/11 03:10:15;;;;;;;16.50;8.82;;;;;;;;;;5108942;28;20015;-71
2021/11/11 03:12:41;;;;;;;14.07;9.18;;;;;;;;;;5090613;28;20024;-72
2021/11/11 03:15:08;;;;;;;12.65;9.00;;;;;;;;;;5090172;28;20027;-72
2021/11/11 03:17:34;;;;;;;12.50;9.05;;;;;;;;;;5108510;28;20073;-72
2021/11/11 03:20:00;;;;;;;12.90;8.60;;;;;;;;;;5108603;28;20023;-71
2021/11/11 03:22:26;;;;;;;12.07;8.45;;;;;;;;;;5108586;28;20027;-71
2021/11/11 03:24:53;;;;;;;11.38;8.32;;;;;;;;;;5108504;28;20031;-71
2021/11/11 03:27:20;;;;;;;12.63;8.85;;;;;;;;;;5090284;28;20026;-71
2021/11/11 03:29:47;;;;;;;11.73;8.52;;;;;;;;;;5108542;28;20028;-71
2021/11/11 03:32:13;;;;;;;13.07;8.68;;;;;;;;;;5108358;28;20054;-71
2021/11/11 03:34:40;;;;;;;13.85;9.32;;;;;;;;;;5107956;28;20048;-71
2021/11/11 03:37:07;;;;;;;12.13;8.23;;;;;;;;;;5108038;28;20094;-71
2021/11/11 03:39:33;;;;;;;11.98;8.27;;;;;;;;;;5089807;28;20028;-70
2021/11/11 03:41:59;;;;;;;13.73;8.10;;;;;;;;;;5090296;28;20027;-70
2021/11/11 03:44:25;;;;;;;11.70;8.40;;;;;;;;;;5090361;28;20097;-70
2021/11/11 03:46:53;;;;;;;12.57;8.50;;;;;;;;;;5078864;28;20039;-70
2021/11/11 03:49:20;;;;;;;11.85;8.02;;;;;;;;;;5095140;28;20027;-70
2021/11/11 03:51:46;;;;;;;11.60;7.78;;;;;;;;;;5095047;28;20046;-71
2021/11/11 03:54:13;;;;;;;12.70;8.95;;;;;;;;;;5094881;28;20401;-71
2021/11/11 03:56:41;;;;;;;10.65;7.75;;;;;;;;;;5095043;28;20024;-71
2021/11/11 03:59:07;;;;;;;11.23;7.85;;;;;;;;;;5095084;28;20028;-70
2021/11/11 04:01:33;;;;;;;12.05;8.25;;;;;;;;;;5095102;28;20047;-71
2021/11/11 04:03:59;;;;;;;12.00;8.07;;;;;;;;;;5076708;28;20060;-70
2021/11/11 04:06:25;;;;;;;10.60;7.70;;;;;;;;;;5094668;28;20107;-70
2021/11/11 04:08:51;;;;;;;11.23;7.88;;;;;;;;;;5106739;28;20027;-71
2021/11/11 04:11:18;;;;;;;12.40;8.25;;;;;;;;;;5115336;28;20024;-70
2021/11/11 04:13:44;;;;;;;11.23;7.88;;;;;;;;;;5115071;28;20577;-70
2021/11/11 04:16:10;;;;;;;10.05;7.05;;;;;;;;;;5115045;28;20081;-71
2021/11/11 04:18:36;;;;;;;11.85;7.90;;;;;;;;;;5115176;28;20023;-71
2021/11/11 04:21:02;;;;;;;12.38;8.23;;;;;;;;;;5096705;28;20136;-68
2021/11/11 04:23:29;;;;;;;13.35;8.20;;;;;;;;;;5114777;28;20030;-69
2021/11/11 04:26:03;;;;;;;11.30;7.75;;;;;;;;;;5096516;28;20424;-68
2021/11/11 04:28:31;;;;;;;10.70;8.07;;;;;;;;;;5096342;28;20016;-68
2021/11/11 04:31:01;;;;;;;12.63;8.40;;;;;;;;;;5114581;28;20015;-69
2021/11/11 04:33:28;;;;;;;10.60;7.55;;;;;;;;;;5114396;28;20016;-69
2021/11/11 04:35:59;;;;;;;11.00;7.03;;;;;;;;;;5114637;28;20024;-69
2021/11/11 04:41:23;;;;;;;10.90;7.32;;;;;;;;;;5114931;28;20032;-69
2021/11/11 04:43:54;;;;;;;9.75;7.30;;;;;;;;;;5114509;28;20016;-69
2021/11/11 05:03:26;;;;;;;10.35;7.18;;;;;;;;;;5114268;28;20032;-72
2021/11/11 05:05:32;;;;;;;10.40;7.20;;;;;;;;;;5102664;28;20027;-71
2021/11/11 05:07:58;;;;;;;11.80;7.45;;;;;;;;;;5095427;28;20047;-71
2021/11/11 05:10:25;;;;;;;9.63;6.85;;;;;;;;;;5095807;28;20016;-72
2021/11/11 05:12:51;;;;;;;10.45;6.90;;;;;;;;;;5095504;28;20024;-72
2021/11/11 05:15:17;;;;;;;10.05;6.97;;;;;;;;;;5113850;28;20430;-70
2021/11/11 05:17:45;;;;;;;10.85;6.93;;;;;;;;;;5113838;28;20012;-71
2021/11/11 05:20:12;;;;;;;9.60;6.65;;;;;;;;;;5095337;28;20027;-71
2021/11/11 05:22:38;;;;;;;11.15;7.15;;;;;;;;;;5095333;28;20023;-69
2021/11/11 05:25:05;;;;;;;10.40;6.72;;;;;;;;;;5113608;28;20065;-70
2021/11/11 05:27:31;;;;;;;9.93;7.15;;;;;;;;;;5113880;28;20521;-69
2021/11/11 05:29:58;;;;;;;12.30;6.78;;;;;;;;;;5113725;28;20497;-70
2021/11/11 05:32:24;;;;;;;9.00;5.88;;;;;;;;;;5113337;28;20099;-70
2021/11/11 05:34:50;;;;;;;11.95;7.40;;;;;;;;;;5113109;28;20099;-70
2021/11/11 05:37:17;;;;;;;8.30;6.45;;;;;;;;;;5113471;28;20024;-70
2021/11/11 05:39:43;;;;;;;13.50;7.28;;;;;;;;;;5113422;28;20027;-70
2021/11/11 05:42:10;;;;;;;10.35;6.97;;;;;;;;;;5113364;28;20019;-71
2021/11/11 05:44:36;;;;;;;11.27;7.45;;;;;;;;;;5113211;28;20024;-70
2021/11/11 05:47:02;;;;;;;10.20;6.80;;;;;;;;;;5113376;28;20494;-69
2021/11/11 05:49:28;;;;;;;10.18;6.80;;;;;;;;;;5113401;28;20032;-69
2021/11/11 05:51:54;;;;;;;9.75;6.80;;;;;;;;;;5113320;28;20023;-69
2021/11/11 05:54:20;;;;;;;11.23;6.88;;;;;;;;;;5094892;28;20038;-71
2021/11/11 05:56:46;;;;;;;10.35;7.60;;;;;;;;;;5112912;28;20023;-69
2021/11/11 05:59:13;;;;;;;13.27;6.00;;;;;;;;;;5112980;28;20049;-69
2021/11/11 06:01:39;;;;;;;8.80;6.32;;;;;;;;;;5094569;28;20023;-69
2021/11/11 06:04:05;;;;;;;10.10;7.25;;;;;;;;;;5112787;28;20023;-69
2021/11/11 06:06:33;;;;;;;11.60;7.28;;;;;;;;;;5112929;28;20012;-69
2021/11/11 06:08:59;;;;;;;10.75;7.35;;;;;;;;;;5082424;28;20020;-69
2021/11/11 06:11:25;;;;;;;10.98;7.57;;;;;;;;;;5092443;28;20053;-69
2021/11/11 06:13:51;;;;;;;11.70;7.95;;;;;;;;;;5092312;28;20103;-69
2021/11/11 06:16:17;;;;;;;12.60;7.70;;;;;;;;;;5092638;28;20102;-69
2021/11/11 06:18:44;;;;;;;10.55;7.45;;;;;;;;;;5092575;28;20028;-69
2021/11/11 06:21:10;;;;;;;11.23;7.85;;;;;;;;;;5092607;28;20051;-68
2021/11/11 06:23:36;;;;;;;11.65;8.18;;;;;;;;;;5092340;28;20027;-68
2021/11/11 06:26:03;;;;;;;10.38;7.43;;;;;;;;;;5092464;28;20152;-69
2021/11/11 06:28:30;;;;;;;11.95;8.07;;;;;;;;;;5092308;28;20486;-68
2021/11/11 06:30:56;;;;;;;10.93;7.22;;;;;;;;;;5092204;28;20032;-69
2021/11/11 06:33:22;;;;;;;13.32;8.57;;;;;;;;;;5091937;28;20442;-69
2021/11/11 06:35:49;;;;;;;12.30;8.45;;;;;;;;;;5091741;28;20062;-69
2021/11/11 06:38:15;;;;;;;9.80;7.15;;;;;;;;;;5092374;28;20051;-69
2021/11/11 06:40:41;;;;;;;10.98;7.43;;;;;;;;;;5092129;28;20024;-69
2021/11/11 06:43:07;;;;;;;12.25;8.20;;;;;;;;;;5092302;28;20089;-70
2021/11/11 06:45:39;;;;;;;11.68;8.10;;;;;;;;;;5092049;28;20035;-70
2021/11/11 06:48:05;;;;;;;12.95;8.27;;;;;;;;;;5092230;28;20021;-71
2021/11/11 06:50:31;;;;;;;13.52;7.82;;;;;;;;;;5073883;28;20024;-70
2021/11/11 06:52:58;;;;;;;11.77;8.45;;;;;;;;;;5092100;28;20037;-70
2021/11/11 06:55:24;;;;;;;13.27;8.07;;;;;;;;;;5092001;28;20038;-69
2021/11/11 06:57:50;;;;;;;12.43;8.52;;;;;;;;;;5073672;28;20055;-71
2021/11/11 07:00:17;;;;;;;17.58;8.63;;;;;;;;;;5073805;28;20494;-70
2021/11/11 07:02:43;;;;;;;14.88;7.82;;;;;;;;;;5100870;28;20035;-69
2021/11/11 07:05:10;;;;;;;12.68;6.75;;;;;;;;;;5112035;28;20031;-70
2021/11/11 07:07:36;;;;;;;14.27;7.53;;;;;;;;;;5111978;28;20032;-69
2021/11/11 07:10:03;;;;;;;14.98;7.90;;;;;;;;;;5111947;28;20383;-70
2021/11/11 07:12:30;;;;;;;14.13;7.28;;;;;;;;;;5112298;28;20049;-71
2021/11/11 07:14:56;;;;;;;11.57;7.78;;;;;;;;;;5111988;28;20028;-70
2021/11/11 07:17:22;;;;;;;16.42;7.22;;;;;;;;;;5112179;28;20024;-70
2021/11/11 07:19:49;;;;;;;11.50;6.75;;;;;;;;;;5112223;28;20072;-71
2021/11/11 07:22:15;;;;;;;13.35;8.38;;;;;;;;;;5115162;28;20020;-71
2021/11/11 07:24:41;;;;;;;11.52;6.90;;;;;;;;;;5115814;28;20027;-71
2021/11/11 07:27:07;;;;;;;18.13;7.88;;;;;;;;;;5116001;28;20012;-71
2021/11/11 07:29:34;;;;;;;9.43;6.40;;;;;;;;;;5115831;28;20374;-71
2021/11/11 07:32:00;;;;;;;10.82;6.57;;;;;;;;;;5092347;28;20020;-70
2021/11/11 07:34:27;;;;;;;11.75;6.68;;;;;;;;;;5094963;28;20087;-72
2021/11/11 07:36:54;;;;;;;11.60;7.70;;;;;;;;;;5077150;28;20521;-70
2021/11/11 07:39:21;;;;;;;13.02;7.95;;;;;;;;;;5094800;28;20459;-70
2021/11/11 07:41:47;;;;;;;12.75;7.00;;;;;;;;;;5076888;28;20110;-69
2021/11/11 07:44:14;;;;;;;17.10;7.82;;;;;;;;;;5106574;28;20521;-71
2021/11/11 07:46:42;;;;;;;14.75;7.00;;;;;;;;;;5115486;28;20116;-72
2021/11/11 07:49:08;;;;;;;17.63;7.03;;;;;;;;;;5115172;28;20104;-72
2021/11/11 07:51:34;;;;;;;11.80;6.72;;;;;;;;;;5115395;28;20561;-71
2021/11/11 07:54:02;;;;;;;15.25;7.50;;;;;;;;;;5115092;28;20035;-71
2021/11/11 07:56:28;;;;;;;12.02;6.25;;;;;;;;;;5115376;28;20104;-71
2021/11/11 07:58:54;;;;;;;16.23;6.50;;;;;;;;;;5093451;28;20065;-71
2021/11/11 08:01:21;;;;;;;12.55;6.60;;;;;;;;;;5103561;28;20499;-71
2021/11/11 08:03:47;;;;;;;11.63;5.78;;;;;;;;;;5103533;27;20069;-71
2021/11/11 08:06:13;;;;;;;10.32;6.13;;;;;;;;;;5101028;28;20027;-70
2021/11/11 08:08:39;;;;;;;9.57;6.25;;;;;;;;;;5100242;28;20027;-70
2021/11/11 08:11:06;;;;;;;10.82;6.68;;;;;;;;;;5087349;28;20053;-72
2021/11/11 08:13:32;;;;;;;12.57;6.85;;;;;;;;;;5103101;27;20028;-70
2021/11/11 08:15:59;;;;;;;11.98;6.82;;;;;;;;;;5102510;28;20077;-71
2021/11/11 08:18:25;;;;;;;10.07;6.43;;;;;;;;;;5103179;27;20020;-70
2021/11/11 08:20:51;;;;;;;15.82;6.28;;;;;;;;;;5103023;28;20062;-70
2021/11/11 08:23:17;;;;;;;11.13;6.82;;;;;;;;;;5103725;28;20084;-71
2021/11/11 08:25:46;;;;;;;13.95;7.63;;;;;;;;;;5103480;28;20065;-72
2021/11/11 08:28:13;;;;;;;9.40;6.18;;;;;;;;;;5100653;28;20033;-70
2021/11/11 08:30:39;;;;;;;11.27;6.43;;;;;;;;;;5101899;28;20466;-70
2021/11/11 08:33:05;;;;;;;10.45;6.43;;;;;;;;;;5086498;28;20551;-72
2021/11/11 08:35:31;;;;;;;12.35;5.97;;;;;;;;;;5093964;28;20059;-71
2021/11/11 08:37:58;;;;;;;10.48;6.30;;;;;;;;;;5076065;28;20107;-71
2021/11/11 08:40:24;;;;;;;11.02;7.00;;;;;;;;;;5094040;28;20024;-71
2021/11/11 08:42:51;;;;;;;23.02;7.18;;;;;;;;;;5093931;28;20019;-71
2021/11/11 08:45:17;;;;;;;32.78;8.07;;;;;;;;;;5094032;28;20168;-70
2021/11/11 08:47:44;;;;;;;48.28;7.63;;;;;;;;;;5101749;27;20023;-73
2021/11/11 08:50:11;;;;;;;52.28;9.20;;;;;;;;;;5086047;28;20024;-70
2021/11/11 08:52:43;;;;;;;61.60;9.10;;;;;;;;;;5102421;27;20383;-73
2021/11/11 08:55:10;;;;;;;49.92;7.07;;;;;;;;;;5101964;28;20571;-69
2021/11/11 08:57:36;;;;;;;36.60;7.97;;;;;;;;;;5099064;27;20019;-70
2021/11/11 09:00:12;;;;;;;27.05;6.90;;;;;;;;;;5101664;28;20157;-69
2021/11/11 09:02:39;;;;;;;31.75;7.30;;;;;;;;;;5097510;28;20032;-67
2021/11/11 09:05:06;;;;;;;41.15;6.53;;;;;;;;;;5099547;28;20164;-68
2021/11/11 09:07:32;;;;;;;28.65;7.13;;;;;;;;;;5081478;28;20128;-67
2021/11/11 09:09:58;;;;;;;24.83;5.80;;;;;;;;;;5093500;28;20020;-68
2021/11/11 09:12:24;;;;;;;26.42;5.70;;;;;;;;;;5093103;28;20024;-68
2021/11/11 09:14:51;;;;;;;19.42;5.95;;;;;;;;;;5092769;28;20032;-68
2021/11/11 09:17:17;;;;;;;21.77;5.57;;;;;;;;;;5093110;28;20421;-69
2021/11/11 09:19:43;;;;;;;18.20;5.88;;;;;;;;;;5093141;28;20012;-69
2021/11/11 09:22:09;;;;;;;19.65;5.55;;;;;;;;;;5093533;28;20046;-70
2021/11/11 09:24:35;;;;;;;16.55;5.68;;;;;;;;;;5093433;28;20082;-69
2021/11/11 09:27:01;;;;;;;20.52;6.05;;;;;;;;;;5093412;28;20031;-69
2021/11/11 09:29:27;;;;;;;17.70;5.20;;;;;;;;;;5075280;28;20115;-69
2021/11/11 09:31:53;;;;;;;19.98;6.03;;;;;;;;;;5093047;28;20023;-69
2021/11/11 09:34:19;;;;;;;17.65;5.25;;;;;;;;;;5092616;28;20051;-70
2021/11/11 09:36:45;;;;;;;19.20;5.55;;;;;;;;;;5092991;28;20093;-69
2021/11/11 09:39:11;;;;;;;12.77;4.88;;;;;;;;;;5093222;28;20024;-70
2021/11/11 09:41:40;;;;;;;14.40;5.25;;;;;;;;;;5092938;28;20507;-68
2021/11/11 09:44:06;;;;;;;11.65;5.60;;;;;;;;;;5092417;28;20086;-69
2021/11/11 09:46:32;;;;;;;20.00;5.30;;;;;;;;;;5092996;28;20549;-69
2021/11/11 09:49:00;;;;;;;12.13;5.07;;;;;;;;;;5093155;28;20479;-69
2021/11/11 09:51:26;;;;;;;14.73;5.43;;;;;;;;;;5092751;28;20021;-70
2021/11/11 09:59:13;;;;;;;12.05;4.93;;;;;;;;;;5092713;28;20031;-70
2021/11/11 10:01:42;;;;;;;10.45;4.07;;;;;;;;;;5106945;28;20024;-69
2021/11/11 10:04:09;;;;;;;10.50;4.82;;;;;;;;;;5109515;28;20022;-70
2021/11/11 10:06:35;;;;;;;19.42;5.18;;;;;;;;;;5112722;28;20031;-70
2021/11/11 10:09:10;;;;;;;13.70;5.50;;;;;;;;;;5083079;28;20016;-69
2021/11/11 10:11:38;;;;;;;13.73;3.85;;;;;;;;;;5074033;28;20036;-68
2021/11/11 10:14:05;;;;;;;9.15;4.28;;;;;;;;;;5092074;28;20024;-69
2021/11/11 10:16:36;;;;;;;10.18;4.00;;;;;;;;;;5091912;28;20028;-70
2021/11/11 10:19:03;;;;;;;8.55;3.30;;;;;;;;;;5073782;28;20008;-70
2021/11/11 10:21:53;;;;;;;10.15;4.18;;;;;;;;;;5073817;28;20016;-69
2021/11/11 10:24:54;;;;;;;12.90;4.35;;;;;;;;;;5091953;28;20005;-69
2021/11/11 10:30:22;;;;;;;12.75;3.88;;;;;;;;;;5057444;28;20074;-71
2021/11/11 10:32:51;;;;;;;13.77;4.10;;;;;;;;;;5091889;28;20475;-70
2021/11/11 10:35:17;;;;;;;8.25;4.07;;;;;;;;;;5091763;28;20453;-68
2021/11/11 10:37:57;;;;;;;9.52;3.85;;;;;;;;;;5073871;28;20482;-70
2021/11/11 10:40:30;;;;;;;9.55;3.88;;;;;;;;;;5073959;28;20027;-70
2021/11/11 10:42:56;;;;;;;13.75;3.80;;;;;;;;;;5073339;28;20439;-70
2021/11/11 10:45:24;;;;;;;9.65;3.70;;;;;;;;;;5091425;28;20020;-70
2021/11/11 10:47:51;;;;;;;7.18;3.50;;;;;;;;;;5091408;28;20016;-70
2021/11/11 10:50:20;;;;;;;7.78;3.70;;;;;;;;;;5091487;28;20024;-69
2021/11/11 10:52:49;;;;;;;9.13;4.03;;;;;;;;;;5091307;28;20016;-68
2021/11/11 10:55:20;;;;;;;6.57;3.97;;;;;;;;;;5091247;28;20120;-68
2021/11/11 10:57:52;;;;;;;7.43;4.18;;;;;;;;;;5077011;28;20103;-68
2021/11/11 11:00:18;;;;;;;8.40;3.70;;;;;;;;;;5098336;28;20390;-69
2021/11/11 11:02:51;;;;;;;7.07;4.25;;;;;;;;;;5101948;28;20017;-68
2021/11/11 11:05:17;;;;;;;7.13;3.75;;;;;;;;;;5095856;28;20073;-68
2021/11/11 11:07:46;;;;;;;8.80;3.50;;;;;;;;;;5097615;28;20027;-68
2021/11/11 11:10:17;;;;;;;6.07;3.40;;;;;;;;;;5115990;28;20027;-69
2021/11/11 11:12:43;;;;;;;7.90;3.53;;;;;;;;;;5115677;28;20023;-69
2021/11/11 11:15:09;;;;;;;9.43;4.45;;;;;;;;;;5115628;28;20035;-70
2021/11/11 11:17:35;;;;;;;8.98;3.75;;;;;;;;;;5112135;28;20032;-69
2021/11/11 11:20:21;;;;;;;7.43;3.40;;;;;;;;;;5076840;28;20502;-69
2021/11/11 11:22:47;;;;;;;5.78;3.30;;;;;;;;;;5094814;28;20031;-70
2021/11/11 11:25:13;;;;;;;9.85;3.70;;;;;;;;;;5094719;28;20028;-69
2021/11/11 11:27:39;;;;;;;7.80;3.53;;;;;;;;;;5094839;28;20016;-69
2021/11/11 11:30:12;;;;;;;4.95;3.20;;;;;;;;;;5094932;28;20129;-69
2021/11/11 11:32:43;;;;;;;5.60;3.15;;;;;;;;;;5077364;28;20035;-68
2021/11/11 11:35:10;;;;;;;6.40;3.65;;;;;;;;;;5094720;28;20427;-69
2021/11/11 11:37:37;;;;;;;7.22;3.28;;;;;;;;;;5094570;28;20024;-69
2021/11/11 11:40:11;;;;;;;7.47;3.83;;;;;;;;;;5076469;28;20024;-68
2021/11/11 11:42:39;;;;;;;7.82;3.35;;;;;;;;;;5094842;28;20024;-69
2021/11/11 11:45:08;;;;;;;6.93;4.00;;;;;;;;;;5094579;28;20025;-69
2021/11/11 11:50:04;;;;;;;5.72;3.42;;;;;;;;;;5095145;28;20543;-68
2021/11/11 11:52:31;;;;;;;5.20;2.67;;;;;;;;;;5094288;28;20023;-69
2021/11/11 11:57:30;;;;;;;7.43;3.92;;;;;;;;;;5104649;28;20610;-68
2021/11/11 12:00:04;;;;;;;5.57;3.30;;;;;;;;;;5114550;28;20011;-68
2021/11/11 12:05:18;;;;;;;5.20;3.30;;;;;;;;;;5114885;28;20028;-70
2021/11/11 12:08:24;;;;;;;8.75;4.43;;;;;;;;;;5113344;28;20027;-69
2021/11/11 12:10:52;;;;;;;6.85;3.67;;;;;;;;;;5109980;28;20111;-69
2021/11/11 12:34:18;;;;;;;7.63;3.78;;;;;;;;;;5114116;28;20055;-71
2021/11/11 12:41:08;;;;;;;7.30;3.58;;;;;;;;;;5110461;28;20020;-69
2021/11/11 12:43:34;;;;;;;7.45;3.85;;;;;;;;;;5075395;28;20028;-68
2021/11/11 12:46:00;;;;;;;6.18;3.72;;;;;;;;;;5075571;28;20024;-69
2021/11/11 12:48:27;;;;;;;9.65;4.18;;;;;;;;;;5075227;28;20043;-70
2021/11/11 12:50:56;;;;;;;8.35;4.05;;;;;;;;;;5093427;28;20089;-70
2021/11/11 12:53:25;;;;;;;13.75;4.65;;;;;;;;;;5075286;28;20032;-70
2021/11/11 12:55:51;;;;;;;6.53;4.03;;;;;;;;;;5093278;28;20054;-69
2021/11/11 12:58:19;;;;;;;6.05;3.90;;;;;;;;;;5093898;28;20020;-69
2021/11/11 13:00:48;;;;;;;7.05;3.92;;;;;;;;;;5093403;28;20563;-69
2021/11/11 13:03:15;;;;;;;11.70;3.72;;;;;;;;;;5093402;28;20149;-69
2021/11/11 13:05:52;;;;;;;10.60;4.25;;;;;;;;;;5075271;28;20032;-70
2021/11/11 13:08:44;;;;;;;6.97;4.07;;;;;;;;;;5093562;28;20020;-68
2021/11/11 13:11:11;;;;;;;10.07;3.83;;;;;;;;;;5075200;28;20024;-68
2021/11/11 13:13:38;;;;;;;6.45;3.63;;;;;;;;;;5074175;28;20055;-68
2021/11/11 13:16:13;;;;;;;6.40;3.70;;;;;;;;;;5074179;28;20119;-68
2021/11/11 13:18:42;;;;;;;8.65;4.10;;;;;;;;;;5092249;28;20070;-68
2021/11/11 13:21:10;;;;;;;11.23;3.50;;;;;;;;;;5093082;28;20490;-68
2021/11/11 13:23:56;;;;;;;6.75;4.28;;;;;;;;;;5093123;28;20031;-69
2021/11/11 13:54:18;;;;;;;7.43;3.55;;;;;;;;;;5093383;28;20034;-68
2021/11/11 15:17:59;;;;;;;7.88;4.40;;;;;;;;;;5096109;28;20043;-70
2021/11/11 15:20:54;;;;;;;8.98;4.22;;;;;;;;;;5109718;28;20103;-71
2021/11/11 16:26:23;;;;;;;9.02;5.25;;;;;;;;;;5112758;28;20139;-70
2021/11/11 16:28:57;;;;;;;9.43;4.75;;;;;;;;;;5112222;28;20012;-70
2021/11/11 16:31:24;;;;;;;9.93;4.43;;;;;;;;;;5095263;28;20082;-70
2021/11/11 16:33:50;;;;;;;9.25;4.60;;;;;;;;;;5111620;28;20039;-70
2021/11/11 16:36:17;;;;;;;7.60;4.93;;;;;;;;;;5111430;28;20115;-70
2021/11/11 16:38:44;;;;;;;6.93;4.25;;;;;;;;;;5091922;28;20826;-70
2021/11/11 16:41:10;;;;;;;8.45;5.22;;;;;;;;;;5110422;28;20043;-70
2021/11/11 16:43:36;;;;;;;9.82;5.55;;;;;;;;;;5112375;28;20118;-69
2021/11/11 16:46:04;;;;;;;9.30;4.93;;;;;;;;;;5112273;28;20023;-70
2021/11/11 16:48:30;;;;;;;9.10;4.35;;;;;;;;;;5112934;28;20111;-70
2021/11/11 16:50:56;;;;;;;8.65;4.70;;;;;;;;;;5113426;28;20020;-70
2021/11/11 16:53:25;;;;;;;7.55;4.10;;;;;;;;;;5096593;28;20019;-70
2021/11/11 16:55:51;;;;;;;9.23;4.90;;;;;;;;;;5092061;28;20036;-70
2021/11/11 16:58:18;;;;;;;7.00;4.13;;;;;;;;;;5086213;28;20110;-71
2021/11/11 17:00:44;;;;;;;7.60;3.88;;;;;;;;;;5113159;28;20027;-70
2021/11/11 17:03:12;;;;;;;7.93;4.60;;;;;;;;;;5113224;28;20030;-69
2021/11/11 17:05:38;;;;;;;7.95;4.15;;;;;;;;;;5103814;28;20035;-69
2021/11/11 17:08:05;;;;;;;8.40;4.53;;;;;;;;;;5112424;28;20016;-71
2021/11/11 17:10:31;;;;;;;6.63;4.35;;;;;;;;;;5094555;28;20059;-70
2021/11/11 17:12:57;;;;;;;7.38;4.60;;;;;;;;;;5108886;28;20066;-69
2021/11/11 17:15:27;;;;;;;7.72;4.78;;;;;;;;;;5112222;28;20038;-70
2021/11/11 17:17:54;;;;;;;7.43;4.53;;;;;;;;;;5112268;28;20020;-68
2021/11/11 17:20:22;;;;;;;8.57;4.25;;;;;;;;;;5111942;28;20023;-69
2021/11/11 17:22:55;;;;;;;7.28;4.07;;;;;;;;;;5103524;27;20379;-71
2021/11/11 17:30:43;;;;;;;11.15;5.35;;;;;;;;;;5064351;28;20072;-71
2021/11/11 17:33:10;;;;;;;9.07;4.50;;;;;;;;;;5092652;28;20024;-72
2021/11/11 17:35:36;;;;;;;7.53;4.72;;;;;;;;;;5091687;28;20131;-71
2021/11/11 17:38:03;;;;;;;8.40;4.53;;;;;;;;;;5092922;28;20108;-72
2021/11/11 17:40:30;;;;;;;7.90;4.90;;;;;;;;;;5092550;28;20028;-69
2021/11/11 17:42:56;;;;;;;11.13;5.10;;;;;;;;;;5074673;28;20510;-71
2021/11/11 17:45:31;;;;;;;8.90;4.85;;;;;;;;;;5092629;28;20428;-70
2021/11/11 17:47:58;;;;;;;13.40;5.40;;;;;;;;;;5092545;28;20421;-71
2021/11/11 17:50:29;;;;;;;10.95;5.80;;;;;;;;;;5092581;28;20133;-70
2021/11/11 17:53:07;;;;;;;15.68;5.90;;;;;;;;;;5074409;28;20024;-69
2021/11/11 17:55:37;;;;;;;74.90;39.58;;;;;;;;;;5093622;27;20059;-70
2021/11/11 17:58:05;;;;;;;144.60;52.45;;;;;;;;;;5111576;28;20053;-70
2021/11/11 18:00:31;;;;;;;124.28;41.47;;;;;;;;;;5110966;28;20016;-69
2021/11/11 18:02:58;;;;;;;88.85;29.75;;;;;;;;;;5091739;27;20111;-70
2021/11/11 18:05:26;;;;;;;68.57;27.95;;;;;;;;;;5109966;28;20107;-71
2021/11/11 18:08:02;;;;;;;73.25;26.48;;;;;;;;;;5100032;28;20019;-70
2021/11/11 18:10:31;;;;;;;72.38;27.42;;;;;;;;;;5111360;28;20375;-70
2021/11/11 18:12:59;;;;;;;66.95;24.63;;;;;;;;;;5093814;28;20490;-70
2021/11/11 18:15:36;;;;;;;55.05;21.85;;;;;;;;;;5112263;28;20027;-70
2021/11/11 18:18:03;;;;;;;62.47;22.60;;;;;;;;;;5112714;28;20026;-70
2021/11/11 18:20:29;;;;;;;45.08;19.17;;;;;;;;;;5088170;28;20106;-70
2021/11/11 18:22:56;;;;;;;44.90;18.90;;;;;;;;;;5105766;28;20008;-70
2021/11/11 18:25:23;;;;;;;46.78;18.90;;;;;;;;;;5103607;28;20027;-71
2021/11/11 18:27:49;;;;;;;48.72;18.02;;;;;;;;;;5092470;28;20099;-69
2021/11/11 18:30:40;;;;;;;44.67;15.98;;;;;;;;;;5110841;28;20031;-70
2021/11/11 18:33:15;;;;;;;39.90;15.05;;;;;;;;;;5108102;28;20096;-70
2021/11/11 18:35:56;;;;;;;37.13;14.70;;;;;;;;;;5079260;28;20063;-70